Station info - map view · info · telemetry · weather · raw · status · beacons · messages · bulletins · browse · moving · my account
Callsign, ship name or locator: Clear       
It is possible to search using wildcards (*?) after a prefix. Example: OH*
APRS station WA7EBH-12 - show graphs
Map loading...
Comment: WA7EBH using a TinyTrak3
Last status: TinyTrak3 v1.1
Location: 48°01.19' N 123°00.25' W - locator CN88LA94LS - show map - static map
6.1 miles Southeast bearing 132° from Sequim, Clallam County, Washington, United States [?]
10.1 miles West bearing 265° from Port Hadlock-Irondale, Jefferson County, Washington, United States
33.1 miles Southeast bearing 149° from Victoria, British Columbia, Canada
42.3 miles Northwest bearing 313° from Seattle, King County, Washington, United States
Last position: 2016-09-10 18:25:31 EDT (19d 4h47m ago)
2016-09-10 15:25:31 PDT local time at Sequim, United States [?]
Altitude: -190 ft
Course: 29°
Speed: 8 MPH
Device: Byonics: TinyTrak3 (tracker)
Last path: WA7EBH-12>APT311 via WIDE1-1,WIDE2-2,qAR,N7NIX-1 (good)
Positions stored: 26557
Other SSIDs: WA7EBH-15
Stations near current position of WA7EBH-12 - show more
callsign distance last heard - EDT      callsign distance last heard - EDT
CW53982.0 miles 42°2016-09-29 23:05:16 SEA HORSE3.4 miles 331°2016-09-22 11:07:28
AF7DX-113.8 miles 308°2016-09-29 17:38:43 EW46673.9 miles 327°2016-09-29 23:12:08
AF7DX-93.9 miles 306°2016-09-26 19:39:26 AF7DX4.0 miles 306°2016-09-29 22:27:02
W6CBS-94.0 miles 306°2016-09-14 19:44:35 3382044444.3 miles 298°2016-09-15 16:00:58
AF7DX-124.8 miles 291°2016-09-15 16:03:03 AF7DX-15.0 miles 310°2016-09-29 22:23:11
WB6OMC-135.1 miles 320°2016-09-29 17:30:55 W7WEC-96.4 miles 297°2016-09-29 20:00:43
KX3A-76.7 miles 198°2016-09-24 16:58:52 KC7GVU7.0 miles 300°2016-09-29 23:12:04
EW51318.4 miles 46°2016-09-29 23:09:22 BOBBYB8.6 miles 126°2016-09-29 22:57:22
EW70828.6 miles 315°2016-09-29 23:12:02 KI7ZC9.1 miles 277°2016-09-29 23:03:47
GLACIER SPIRIT10.0 miles 11°2016-09-16 13:45:04 NL7TK-910.1 miles 89°2016-09-28 00:19:32
Stations which heard WA7EBH-12 directly on radio –
callsign pkts first heard - EDT last heard longest (tx => rx) longest at - EDT
K7MT 9 2016-09-02 12:44:47 2016-09-02 13:01:39 DN36XS > DN46AP 9.8 miles 155° 2016-09-02 13:01:39
WA7RVV-11 22 2016-09-06 20:22:55 2016-09-07 14:55:22 DN27AL > DN17LN 52.8 miles 277° 2016-09-06 20:25:01
BALDI 12 2016-09-10 16:22:25 2016-09-10 18:09:01 CN87NW > CN97BF 69.7 miles 136° 2016-09-10 18:09:01
CLEELM 4 2016-09-10 14:42:05 2016-09-10 15:05:07 CN97OD > CN97ME 7.8 miles 295° 2016-09-10 14:42:05
WW7RA 8 2016-09-10 16:44:06 2016-09-10 17:57:28 CN87TF > CN87ON 30.0 miles 315° 2016-09-10 16:44:06
W7ECA-10 20 2016-09-02 13:45:07 2016-09-02 15:11:05 DN38SE > DN47QK 99.9 miles 120° 2016-09-02 15:11:05
SOMTN 6 2016-09-10 16:33:34 2016-09-10 17:56:45 CN87VH > CN87HH 52.7 miles 272° 2016-09-10 16:33:34
MISION 13 2016-09-10 13:38:34 2016-09-10 14:51:40 DN17BJ > CN97TG 119.8 miles 267° 2016-09-10 13:38:34
CHILL 14 2016-09-02 11:13:37 2016-09-02 12:04:25 DN36TD > DN36MC 27.9 miles 261° 2016-09-02 12:04:25
MACPAS 11 2016-09-02 12:27:51 2016-09-02 14:13:26 DN37UO > DN36UO 69.1 miles 179° 2016-09-02 14:13:26
PATKNB 44 2016-09-06 15:14:22 2016-09-06 20:06:24 DN28VI > DN27NI 74.6 miles 203° 2016-09-06 15:14:22
LOOKOT 28 2016-09-06 18:16:50 2016-09-07 13:39:25 DN17OQ > DN27EK 55.5 miles 106° 2016-09-07 13:39:25
W7SWT-11 6 2016-09-02 15:04:43 2016-09-02 15:28:37 DN38SE > DN48KU 77.1 miles 52° 2016-09-02 15:11:30
ERINB 1 2016-09-10 16:07:08 2016-09-10 16:07:08 CN97BM > CN87MQ 51.6 miles 282° 2016-09-10 16:07:08
TIGER 1 2016-09-10 16:52:14 2016-09-10 16:52:14 CN87SF > CN97AM 27.9 miles 47° 2016-09-10 16:52:14
SNOPAS 6 2016-09-10 15:19:30 2016-09-10 15:30:00 CN97HI > CN97HK 5.6 miles 339° 2016-09-10 15:19:30
K7NVH-1 2 2016-09-10 15:43:43 2016-09-10 15:58:24 CN97DL > CN87VX 41.7 miles 327° 2016-09-10 15:58:24
SNOVAL 4 2016-09-10 15:38:37 2016-09-10 16:05:57 CN97CM > CN97DL 5.1 miles 119° 2016-09-10 16:05:57
N7UFK 6 2016-09-10 17:29:10 2016-09-10 17:36:51 CN87PQ > CN87PO 6.7 miles 173° 2016-09-10 17:36:51
WAHAT 7 2016-09-10 13:41:05 2016-09-10 14:09:53 CN96VW > DN06FT 31.5 miles 108° 2016-09-10 14:09:53
AF7DX 2 2016-09-10 18:20:34 2016-09-10 18:25:26 CN88MB > CN88LB 6.1 miles 272° 2016-09-10 18:20:34
KITTAS 8 2016-09-10 13:49:52 2016-09-10 14:30:27 DN07BB > CN97TA 25.1 miles 260° 2016-09-10 13:49:52
MAPLE 3 2016-09-10 15:59:10 2016-09-10 16:17:12 CN97DL > CN87WK 17.6 miles 265° 2016-09-10 15:59:10
AA9MQ-10 3 2016-09-10 16:28:48 2016-09-10 16:31:53 CN87WI > CN87VH 1.9 miles 229° 2016-09-10 16:28:48
N7NIX-1 3 2016-09-10 18:19:04 2016-09-10 18:25:58 CN88LA > CN88NL 32.4 miles 8° 2016-09-10 18:25:58
KB6YAF-10 1 2016-09-10 17:01:40 2016-09-10 17:01:40 CN87RG > CN87PB 17.5 miles 214° 2016-09-10 17:01:40
W7HR-2 1 2016-09-10 17:24:03 2016-09-10 17:24:03 CN87PM > CN87RN 6.8 miles 76° 2016-09-10 17:24:03
W7HR-1 5 2016-09-10 15:57:35 2016-09-10 16:38:10 CN97DL > CN87RN 39.4 miles 279° 2016-09-10 15:59:58
SNOHO 1 2016-09-10 15:59:49 2016-09-10 15:59:49 CN97DL > CN87XW 37.3 miles 333° 2016-09-10 15:59:49
KA0ZRW-1 1 2016-09-10 16:23:55 2016-09-10 16:23:55 CN87XJ > CN97BI 8.4 miles 104° 2016-09-10 16:23:55
VE7VIC-14 1 2016-09-10 18:24:18 2016-09-10 18:24:18 CN88MA > CN88FK 38.2 miles 319° 2016-09-10 18:24:18
NW7RG-1 20 2016-09-06 14:38:27 2016-09-06 17:16:03 DN28XJ > DN28VA 26.9 miles 194° 2016-09-06 14:38:27
WA7VC-10 6 2016-09-10 15:37:07 2016-09-10 16:02:57 CN97CL > CN97DL 4.8 miles 98° 2016-09-10 16:02:57
W7NPC-10 3 2016-09-10 17:26:01 2016-09-10 17:32:52 CN87PM > CN87RP 9.9 miles 37° 2016-09-10 17:26:01
W7EEE 2 2016-09-10 17:52:53 2016-09-10 18:07:45 CN87NW > CN87TP 30.2 miles 129° 2016-09-10 18:07:45

Only position packets which were originated by the station are shown here. The range statistics show some extra long hops, because some digipeaters do not correctly add themselves to the digipeater path. Please check the raw packets.
About this site
This page shows real-time information collected from the Automatic Position Reporting System Internet network (APRS-IS). APRS is used by amateur (ham) radio operators to transmit real-time position information, weather data, telemetry and messages over the radio. A vehicle equipped with a GPS receiver, a VHF transmitter or HF transceiver and a small computer device called a tracker transmits it's location, speed and course in a small data packet, which is then received by a nearby iGate receiving site which forwards the packet on the Internet. Systems connected to the Internet can send information on the APRS-IS without a radio transmitter, or collect and display information transmitted anywhere in the world.
FAQ · Blog · Discussion group · Linking to aprs.fi · AIS sites · Service status · Database statistics · Advertising on aprs.fi · Technical details · API · Change log · Planned changes · Credits and thanks · Terms Of Service · iPhone/iPad APRS